Time;durP1;ratioP1;P1;durP2;ratioP2;P2;SDS_P1;SDS_P2;PMS_P1;PMS_P2;Temp;Humidity;BMP_temperature;BMP_pressure;BME280_temperature;BME280_humidity;BME280_pressure;Samples;Min_cycle;Max_cycle;Signal;HPM_P1;HPM_P2
2023/04/11 00:02:13;;;;;;;4.20;1.30;;;9.90;99.90;;;;;;5029776;28;20530;-82
2023/04/11 00:04:40;;;;;;;2.37;1.10;;;10.00;99.90;;;;;;5038053;28;20543;-81
2023/04/11 00:07:07;;;;;;;2.87;1.30;;;10.00;99.90;;;;;;5048508;28;20547;-83
2023/04/11 00:09:34;;;;;;;8.73;1.30;;;10.10;99.90;;;;;;5059042;28;20483;-83
2023/04/11 00:12:01;;;;;;;4.73;1.20;;;10.20;99.90;;;;;;5050364;28;20484;-83
2023/04/11 00:14:31;;;;;;;4.10;1.37;;;10.30;99.90;;;;;;5039258;28;20464;-83
2023/04/11 00:16:59;;;;;;;2.37;1.23;;;10.30;99.90;;;;;;5043496;28;20474;-82
2023/04/11 00:19:27;;;;;;;8.50;1.70;;;10.30;99.90;;;;;;5058558;28;20864;-81
2023/04/11 00:21:56;;;;;;;3.33;1.30;;;10.40;99.90;;;;;;5054732;28;21052;-83
2023/04/11 00:24:23;;;;;;;2.53;1.10;;;10.30;99.90;;;;;;5040035;28;20461;-82
2023/04/11 00:26:50;;;;;;;5.10;1.80;;;10.40;99.90;;;;;;5044439;28;20473;-82
2023/04/11 00:29:16;;;;;;;4.40;1.50;;;10.40;99.90;;;;;;5061194;28;21187;-83
2023/04/11 00:31:45;;;;;;;4.60;1.60;;;10.50;99.90;;;;;;5041194;28;20516;-84
2023/04/11 00:34:11;;;;;;;6.13;1.40;;;10.50;99.90;;;;;;5043109;28;20515;-84
2023/04/11 00:36:40;;;;;;;3.30;1.20;;;10.50;99.90;;;;;;5068017;28;20528;-82
2023/04/11 00:39:07;;;;;;;2.53;1.17;;;10.50;99.90;;;;;;5064359;28;20475;-82
2023/04/11 00:41:34;;;;;;;2.20;1.10;;;10.60;99.90;;;;;;5041474;28;20467;-82
2023/04/11 00:44:01;;;;;;;6.83;1.57;;;10.50;99.90;;;;;;5037605;28;20503;-82
2023/04/11 00:46:28;;;;;;;2.63;1.10;;;10.60;99.90;;;;;;5045953;28;20934;-80
2023/04/11 00:48:56;;;;;;;4.90;1.67;;;10.50;99.90;;;;;;5038072;28;20472;-81
2023/04/11 00:51:23;;;;;;;3.87;1.80;;;10.50;99.90;;;;;;5065974;28;20493;-82
2023/04/11 00:53:50;;;;;;;5.47;1.30;;;10.60;96.70;;;;;;5072252;28;20511;-81
2023/04/11 00:56:17;;;;;;;5.00;1.37;;;10.60;99.90;;;;;;5070399;28;20483;-80
2023/04/11 00:58:44;;;;;;;3.80;1.40;;;10.40;99.90;;;;;;5056859;28;20469;-84
2023/04/11 01:01:11;;;;;;;2.93;1.57;;;10.50;99.90;;;;;;5039481;28;20456;-82
2023/04/11 01:03:40;;;;;;;8.97;1.90;;;10.50;99.90;;;;;;5041129;28;20523;-83
2023/04/11 01:06:10;;;;;;;5.53;1.53;;;10.50;99.90;;;;;;5033048;28;20570;-82
2023/04/11 01:08:38;;;;;;;9.17;1.60;;;10.40;99.90;;;;;;5023242;28;20864;-83
2023/04/11 01:11:06;;;;;;;7.27;2.10;;;10.40;99.90;;;;;;5060793;28;20534;-83
2023/04/11 01:13:34;;;;;;;4.33;1.60;;;10.40;99.90;;;;;;5041832;28;20491;-83
2023/04/11 01:16:01;;;;;;;5.50;1.83;;;10.40;99.90;;;;;;5062585;28;20451;-81
2023/04/11 01:18:28;;;;;;;3.80;1.63;;;10.40;99.90;;;;;;5061835;28;20481;-82
2023/04/11 01:20:55;;;;;;;3.93;1.70;;;10.30;99.90;;;;;;5039515;28;20464;-80
2023/04/11 01:23:23;;;;;;;5.23;1.90;;;10.40;99.90;;;;;;5038935;28;21023;-81
2023/04/11 01:25:50;;;;;;;2.93;1.60;;;10.40;99.90;;;;;;5040666;28;20441;-80
2023/04/11 01:28:18;;;;;;;7.80;2.63;;;10.50;99.90;;;;;;5048560;28;20481;-80
2023/04/11 01:30:45;;;;;;;5.80;2.03;;;10.40;99.90;;;;;;5049758;28;20827;-81
2023/04/11 01:33:12;;;;;;;5.40;1.97;;;10.40;99.20;;;;;;5056358;28;20486;-82
2023/04/11 01:35:39;;;;;;;5.07;2.27;;;10.30;99.90;;;;;;5052203;28;20989;-79
2023/04/11 01:38:06;;;;;;;7.80;2.43;;;10.20;99.90;;;;;;5058311;28;20475;-81
2023/04/11 01:40:35;;;;;;;10.60;2.60;;;10.10;99.90;;;;;;5058702;28;20457;-80
2023/04/11 01:43:02;;;;;;;7.97;2.23;;;10.20;99.90;;;;;;5043160;28;20453;-80
2023/04/11 01:45:29;;;;;;;7.20;2.50;;;10.20;99.90;;;;;;5050136;28;20452;-81
2023/04/11 01:47:56;;;;;;;8.27;2.90;;;10.20;99.90;;;;;;5053551;28;20449;-81
2023/04/11 01:50:24;;;;;;;8.50;2.97;;;10.20;99.90;;;;;;5038934;28;20455;-80
2023/04/11 01:52:51;;;;;;;5.60;2.20;;;10.20;99.90;;;;;;5042490;28;20478;-80
2023/04/11 01:55:18;;;;;;;8.03;2.40;;;10.20;99.90;;;;;;5057253;28;20547;-81
2023/04/11 01:57:46;;;;;;;8.67;2.53;;;10.30;99.90;;;;;;5041691;28;20461;-82
2023/04/11 02:00:14;;;;;;;5.37;2.43;;;10.30;99.90;;;;;;5043129;28;20485;-81
2023/04/11 02:02:41;;;;;;;9.83;2.50;;;10.40;99.90;;;;;;5020874;28;20446;-83
2023/04/11 02:05:08;;;;;;;11.27;3.53;;;10.40;99.20;;;;;;5059311;28;20458;-81
2023/04/11 02:07:36;;;;;;;5.77;2.47;;;10.40;97.90;;;;;;5057647;28;20454;-80
2023/04/11 02:10:03;;;;;;;7.47;2.43;;;10.40;98.20;;;;;;5032447;28;20489;-80
2023/04/11 02:12:30;;;;;;;11.33;3.80;;;10.40;99.30;;;;;;5017423;28;20451;-81
2023/04/11 02:14:58;;;;;;;9.33;3.83;;;10.30;94.90;;;;;;5056687;28;20459;-81
2023/04/11 02:17:29;;;;;;;9.53;3.83;;;10.30;94.70;;;;;;5056945;28;20843;-79
2023/04/11 02:19:57;;;;;;;11.70;3.50;;;10.40;89.40;;;;;;5058210;28;20486;-80
2023/04/11 02:22:24;;;;;;;10.03;2.97;;;10.30;77.30;;;;;;5042017;28;20456;-81
2023/04/11 02:24:52;;;;;;;5.53;3.40;;;10.40;53.90;;;;;;5036358;28;20456;-81
2023/04/11 02:27:18;;;;;;;14.27;3.57;;;10.40;51.50;;;;;;5050628;28;20471;-80
2023/04/11 02:29:45;;;;;;;14.73;3.67;;;10.30;38.00;;;;;;5056933;28;20477;-80
2023/04/11 02:32:13;;;;;;;9.67;3.23;;;10.30;51.60;;;;;;5048574;28;20445;-82
2023/04/11 02:34:41;;;;;;;11.33;3.83;;;10.20;69.30;;;;;;5036528;28;20513;-81
2023/04/11 02:37:08;;;;;;;13.37;3.73;;;10.20;74.30;;;;;;5038145;28;21003;-80
2023/04/11 02:39:35;;;;;;;13.60;3.67;;;10.20;53.50;;;;;;5043315;28;20472;-80
2023/04/11 02:42:01;;;;;;;12.60;3.30;;;10.20;34.60;;;;;;5023032;28;20465;-80
2023/04/11 02:44:29;;;;;;;10.43;3.87;;;10.10;38.40;;;;;;5032417;28;20866;-81
2023/04/11 02:46:57;;;;;;;13.20;3.50;;;10.00;54.10;;;;;;5056826;28;20457;-80
2023/04/11 02:49:25;;;;;;;15.73;4.17;;;9.90;61.00;;;;;;5056525;28;20479;-80
2023/04/11 02:51:52;;;;;;;10.17;4.07;;;9.80;93.20;;;;;;5056093;28;20459;-81
2023/04/11 02:54:19;;;;;;;11.60;3.03;;;9.80;96.00;;;;;;5044260;28;20481;-82
2023/04/11 02:56:46;;;;;;;14.93;4.03;;;9.70;99.90;;;;;;5056887;28;20463;-82
2023/04/11 02:59:12;;;;;;;16.87;3.20;;;9.70;99.90;;;;;;5042547;28;20477;-80
2023/04/11 03:01:39;;;;;;;13.83;3.57;;;9.70;79.90;;;;;;5036003;28;20456;-81
2023/04/11 03:04:07;;;;;;;8.40;3.87;;;9.70;54.10;;;;;;5050169;28;20459;-80
2023/04/11 03:06:35;;;;;;;14.27;3.70;;;9.70;54.90;;;;;;5059102;28;20552;-82
2023/04/11 03:09:03;;;;;;;10.73;3.90;;;9.60;51.40;;;;;;5046835;28;20484;-81
2023/04/11 03:11:30;;;;;;;16.43;4.30;;;9.60;57.70;;;;;;5037812;28;20467;-82
2023/04/11 03:13:57;;;;;;;12.40;4.27;;;9.60;52.60;;;;;;5058194;28;20482;-82
2023/04/11 03:16:24;;;;;;;16.77;4.33;;;9.50;58.90;;;;;;5059481;28;20459;-80
2023/04/11 03:18:51;;;;;;;14.63;4.40;;;9.50;46.60;;;;;;5040647;28;20475;-80
2023/04/11 03:21:17;;;;;;;14.03;4.57;;;9.60;48.20;;;;;;5037789;28;20458;-80
2023/04/11 03:23:46;;;;;;;16.00;5.20;;;9.60;39.60;;;;;;5055825;28;20445;-80
2023/04/11 03:26:13;;;;;;;7.77;4.20;;;9.60;38.40;;;;;;5058823;28;20457;-80
2023/04/11 03:28:39;;;;;;;10.50;3.77;;;9.70;33.80;;;;;;5057563;28;21048;-79
2023/04/11 03:31:07;;;;;;;11.90;3.20;;;9.70;21.20;;;;;;5057566;28;20449;-83
2023/04/11 03:33:34;;;;;;;18.20;3.90;;;9.80;5.50;;;;;;5043841;28;20571;-81
2023/04/11 03:36:00;;;;;;;17.37;4.03;;;9.80;9.20;;;;;;5038420;28;20451;-83
2023/04/11 03:38:28;;;;;;;12.53;4.17;;;9.90;3.60;;;;;;5039334;28;20479;-81
2023/04/11 03:40:56;;;;;;;15.40;5.30;;;9.90;8.60;;;;;;5038551;28;20904;-82
2023/04/11 03:43:23;;;;;;;11.50;4.23;;;9.90;9.50;;;;;;5048922;28;20458;-81
2023/04/11 03:45:50;;;;;;;19.67;5.80;;;9.90;16.70;;;;;;5059743;28;20459;-81
2023/04/11 03:48:17;;;;;;;14.60;4.03;;;9.90;21.20;;;;;;5049932;28;20479;-82
2023/04/11 03:50:44;;;;;;;8.40;3.40;;;10.00;1.00;;;;;;5038531;28;20448;-80
2023/04/11 03:53:11;;;;;;;17.13;4.53;;;10.00;5.70;;;;;;5045784;28;20483;-79
2023/04/11 03:55:38;;;;;;;21.70;4.73;;;9.90;1.00;;;;;;5034073;28;20543;-81
2023/04/11 03:58:06;;;;;;;12.30;3.70;;;9.90;1.00;;;;;;5031263;28;20483;-81
2023/04/11 04:00:32;;;;;;;14.00;4.07;;;9.90;1.00;;;;;;5058493;28;20455;-81
2023/04/11 04:02:59;;;;;;;12.10;4.20;;;9.90;1.00;;;;;;5056331;28;20456;-79
2023/04/11 04:05:26;;;;;;;9.70;3.90;;;9.80;1.00;;;;;;5060024;28;20459;-81
2023/04/11 04:07:53;;;;;;;13.90;4.30;;;9.80;1.00;;;;;;5056096;28;20451;-81
2023/04/11 04:10:22;;;;;;;11.83;3.93;;;9.90;1.00;;;;;;5035288;22;20566;-78
2023/04/11 04:12:49;;;;;;;12.00;5.03;;;9.90;1.00;;;;;;5015014;28;20511;-78
2023/04/11 04:15:17;;;;;;;12.10;4.27;;;9.90;1.00;;;;;;5015694;28;20857;-80
2023/04/11 04:17:47;;;;;;;17.63;4.10;;;9.90;1.00;;;;;;5031447;28;20454;-77
2023/04/11 04:20:53;;;;;;;12.60;4.30;;;10.00;1.00;;;;;;5039101;22;20501;-77
2023/04/11 04:23:19;;;;;;;12.57;5.20;;;10.00;1.00;;;;;;4967915;28;20451;-80
2023/04/11 04:25:51;;;;;;;13.50;5.50;;;10.00;1.00;;;;;;5023042;28;20456;-77
2023/04/11 04:28:31;;;;;;;18.10;5.30;;;10.00;1.00;;;;;;5031272;28;20816;-78
2023/04/11 04:31:01;;;;;;;11.80;4.03;;;9.90;1.00;;;;;;5018996;28;20462;-78
2023/04/11 04:33:46;;;;;;;;;;;;;;;;;;;;;
2023/04/11 04:39:00;;;;;;;19.53;5.03;;;9.90;1.00;;;;;;5008871;28;20936;-81
2023/04/11 04:41:35;;;;;;;9.43;4.27;;;9.80;1.00;;;;;;5010080;28;20457;-80
2023/04/11 04:44:03;;;;;;;14.30;4.60;;;9.80;1.00;;;;;;5012508;28;20447;-83
2023/04/11 04:46:35;;;;;;;12.13;4.80;;;9.80;1.00;;;;;;5015598;28;20456;-80
2023/04/11 04:49:03;;;;;;;10.10;4.60;;;9.70;1.00;;;;;;5014576;28;20487;-80
2023/04/11 04:51:30;;;;;;;10.90;4.10;;;9.70;1.00;;;;;;5012650;28;20455;-81
2023/04/11 04:53:58;;;;;;;12.70;4.13;;;9.70;1.00;;;;;;5012676;28;20529;-80
2023/04/11 04:56:25;;;;;;;16.20;4.73;;;9.70;1.00;;;;;;5013594;28;20460;-77
2023/04/11 04:59:04;;;;;;;14.30;3.63;;;9.60;1.00;;;;;;5010201;28;20562;-76
2023/04/11 05:01:38;;;;;;;13.50;4.33;;;9.60;1.00;;;;;;5008515;28;20538;-76
2023/04/11 05:04:11;;;;;;;11.23;3.70;;;9.50;1.00;;;;;;5010709;28;20457;-76
2023/04/11 05:06:38;;;;;;;13.80;4.03;;;9.40;1.00;;;;;;5012024;28;20465;-78
2023/04/11 05:09:07;;;;;;;9.53;4.77;;;9.40;1.00;;;;;;4973639;28;21692;-76
2023/04/11 05:11:34;;;;;;;9.60;3.50;;;9.50;1.00;;;;;;5016371;28;20463;-77
2023/04/11 05:14:01;;;;;;;12.90;5.77;;;9.50;1.00;;;;;;5019726;28;20911;-78
2023/04/11 05:16:28;;;;;;;14.10;5.10;;;9.60;1.00;;;;;;5012942;28;20482;-78
2023/04/11 05:18:57;;;;;;;11.80;4.73;;;9.50;1.00;;;;;;5013184;28;20551;-78
2023/04/11 05:21:23;;;;;;;14.47;5.63;;;9.40;1.00;;;;;;5010017;28;20457;-77
2023/04/11 05:23:50;;;;;;;11.87;3.90;;;9.50;1.00;;;;;;5014378;28;20462;-77
2023/04/11 05:26:17;;;;;;;11.27;3.73;;;9.50;1.00;;;;;;5008987;28;20456;-79
2023/04/11 05:28:44;;;;;;;18.07;3.50;;;9.60;1.00;;;;;;5012796;28;20467;-78
2023/04/11 05:31:11;;;;;;;11.10;3.20;;;9.70;1.00;;;;;;5014415;28;20458;-79
2023/04/11 05:33:38;;;;;;;14.27;3.83;;;9.70;1.00;;;;;;5011204;28;20456;-81
2023/04/11 05:36:07;;;;;;;7.70;3.40;;;9.70;1.00;;;;;;5018072;28;20501;-79
2023/04/11 05:38:34;;;;;;;15.43;3.83;;;9.70;1.00;;;;;;5015692;28;20458;-79
2023/04/11 05:41:01;;;;;;;9.73;3.57;;;9.60;1.00;;;;;;5016735;28;20452;-77
2023/04/11 05:43:29;;;;;;;14.00;5.93;;;9.60;1.00;;;;;;5013893;28;21154;-78
2023/04/11 05:45:57;;;;;;;11.87;4.23;;;9.50;1.00;;;;;;5014653;28;20450;-78
2023/04/11 05:48:24;;;;;;;9.10;3.57;;;9.50;1.00;;;;;;5014064;28;20477;-78
2023/04/11 05:50:51;;;;;;;7.47;3.70;;;9.60;1.00;;;;;;5013422;28;20994;-77
2023/04/11 05:53:19;;;;;;;8.30;2.57;;;9.50;1.00;;;;;;5011456;28;20505;-78
2023/04/11 05:55:46;;;;;;;8.17;3.80;;;9.50;1.00;;;;;;5011910;28;20510;-76
2023/04/11 05:58:13;;;;;;;7.70;2.60;;;9.50;1.00;;;;;;5015492;28;20491;-77
2023/04/11 06:00:40;;;;;;;16.73;4.00;;;9.50;1.00;;;;;;5016061;28;20565;-77
2023/04/11 06:03:08;;;;;;;10.97;3.37;;;9.80;1.00;;;;;;5015435;28;20970;-79
2023/04/11 06:05:35;;;;;;;17.10;3.50;;;10.10;1.00;;;;;;5021111;28;20987;-78
2023/04/11 06:08:03;;;;;;;12.33;3.53;;;10.10;1.00;;;;;;5017175;28;20487;-77
2023/04/11 06:10:31;;;;;;;13.97;3.70;;;10.20;1.00;;;;;;5014586;28;20473;-77
2023/04/11 06:12:58;;;;;;;11.70;3.27;;;10.20;99.90;;;;;;5016695;28;20463;-77
2023/04/11 06:15:26;;;;;;;8.63;3.10;;;10.10;99.90;;;;;;5016350;28;20855;-77
2023/04/11 06:17:53;;;;;;;7.20;3.00;;;10.10;99.90;;;;;;5015314;28;20833;-78
2023/04/11 06:20:20;;;;;;;10.00;4.23;;;10.20;99.90;;;;;;5015953;28;20858;-77
2023/04/11 06:22:50;;;;;;;11.80;3.07;;;10.00;99.90;;;;;;5016741;28;20458;-77
2023/04/11 06:25:17;;;;;;;11.93;3.37;;;10.00;99.90;;;;;;5016096;28;20459;-78
2023/04/11 06:27:46;;;;;;;12.30;3.77;;;10.20;99.90;;;;;;5026092;28;20558;-80
2023/04/11 06:30:13;;;;;;;11.60;3.83;;;10.20;99.90;;;;;;5017586;28;20644;-78
2023/04/11 06:32:40;;;;;;;8.60;3.70;;;10.00;1.00;;;;;;5017870;28;20557;-77
2023/04/11 06:35:08;;;;;;;9.90;3.47;;;10.00;99.90;;;;;;5015071;28;20543;-79
2023/04/11 06:37:37;;;;;;;13.80;4.20;;;10.00;99.90;;;;;;5013652;28;20465;-77
2023/04/11 06:40:06;;;;;;;11.47;3.60;;;10.10;99.90;;;;;;5013290;28;20485;-76
2023/04/11 06:42:33;;;;;;;9.13;3.63;;;10.30;99.90;;;;;;5016137;28;20948;-78
2023/04/11 06:45:02;;;;;;;9.03;3.70;;;10.40;87.60;;;;;;5017759;28;20543;-76
2023/04/11 06:47:29;;;;;;;9.50;3.43;;;10.30;63.00;;;;;;5017456;28;20458;-77
2023/04/11 06:49:56;;;;;;;13.17;4.10;;;10.20;47.60;;;;;;5013351;28;20523;-79
2023/04/11 06:52:23;;;;;;;11.80;3.73;;;10.10;1.00;;;;;;5014331;28;20468;-79
2023/04/11 06:54:50;;;;;;;8.93;3.80;;;10.20;1.00;;;;;;5013096;28;20494;-78
2023/04/11 06:57:17;;;;;;;9.13;3.33;;;10.30;1.00;;;;;;5015705;28;20464;-79
2023/04/11 06:59:44;;;;;;;15.67;4.20;;;10.20;1.00;;;;;;5013206;28;20481;-78
2023/04/11 07:02:12;;;;;;;10.23;4.10;;;10.50;1.00;;;;;;5014458;28;20462;-77
2023/04/11 07:04:39;;;;;;;7.73;3.10;;;10.60;99.90;;;;;;5009877;28;20463;-77
2023/04/11 07:07:06;;;;;;;11.90;3.60;;;10.60;1.00;;;;;;5013600;28;20475;-78
2023/04/11 07:09:33;;;;;;;9.60;2.80;;;10.70;99.90;;;;;;5014866;28;20481;-78
2023/04/11 07:12:00;;;;;;;11.77;3.10;;;10.90;1.00;;;;;;5014005;28;20919;-78
2023/04/11 07:14:26;;;;;;;7.70;3.40;;;11.00;1.00;;;;;;5014397;28;20520;-77
2023/04/11 07:16:53;;;;;;;11.10;3.20;;;11.10;99.90;;;;;;5018178;28;20471;-78
2023/04/11 07:19:21;;;;;;;8.87;2.60;;;11.10;99.90;;;;;;5007344;28;20487;-79
2023/04/11 07:21:48;;;;;;;8.63;2.80;;;11.10;1.00;;;;;;5015056;28;20553;-77
2023/04/11 07:24:17;;;;;;;12.67;3.13;;;11.00;1.00;;;;;;5013205;28;20492;-79
2023/04/11 07:26:45;;;;;;;5.23;2.27;;;11.10;1.00;;;;;;5014000;28;20458;-78
2023/04/11 07:29:12;;;;;;;7.37;2.70;;;11.00;99.90;;;;;;5017468;28;20473;-76
2023/04/11 07:31:39;;;;;;;5.70;2.40;;;10.80;99.90;;;;;;5014627;28;20453;-79
2023/04/11 07:34:06;;;;;;;8.60;3.40;;;11.00;99.90;;;;;;5013508;28;20500;-75
2023/04/11 07:36:35;;;;;;;6.03;2.37;;;11.40;99.90;;;;;;5012441;28;20553;-74
2023/04/11 07:39:03;;;;;;;9.63;2.70;;;11.60;99.90;;;;;;5011114;28;21075;-75
2023/04/11 07:41:30;;;;;;;9.53;2.70;;;11.50;99.90;;;;;;5009724;28;20952;-75
2023/04/11 07:43:56;;;;;;;9.00;2.67;;;11.70;99.90;;;;;;5012526;28;20462;-77
2023/04/11 07:46:23;;;;;;;9.50;3.00;;;11.90;97.70;;;;;;5011554;28;20549;-77
2023/04/11 07:48:50;;;;;;;10.20;2.63;;;11.80;75.20;;;;;;5011649;28;20502;-79
2023/04/11 07:51:17;;;;;;;4.30;2.40;;;11.60;99.90;;;;;;5012694;28;20523;-76
2023/04/11 07:53:45;;;;;;;10.70;2.97;;;11.70;99.90;;;;;;5011841;28;20501;-78
2023/04/11 07:56:13;;;;;;;14.80;2.50;;;12.20;99.90;;;;;;5005585;28;20566;-78
2023/04/11 07:58:40;;;;;;;10.13;2.07;;;12.50;99.90;;;;;;5011394;28;21046;-77
2023/04/11 08:01:19;;;;;;;14.20;2.80;;;12.70;9.70;;;;;;5009117;28;20462;-78
2023/04/11 08:03:45;;;;;;;7.63;2.60;;;12.70;1.00;;;;;;5008680;28;20464;-78
2023/04/11 08:06:12;;;;;;;10.18;3.25;;;12.90;1.00;;;;;;5010847;28;20525;-79
2023/04/11 08:08:39;;;;;;;10.83;2.80;;;12.80;1.00;;;;;;5021934;28;20675;-78
2023/04/11 08:11:08;;;;;;;9.00;2.30;;;12.90;1.00;;;;;;5016996;28;20454;-80
2023/04/11 08:13:34;;;;;;;7.73;2.77;;;12.80;1.00;;;;;;5020516;28;20453;-79
2023/04/11 08:16:03;;;;;;;11.23;2.70;;;13.00;1.00;;;;;;5020537;28;20484;-79
2023/04/11 08:18:31;;;;;;;6.07;2.00;;;13.50;1.00;;;;;;5018051;28;20918;-79
2023/04/11 08:20:58;;;;;;;7.47;2.30;;;14.00;1.00;;;;;;5019808;28;20532;-79
2023/04/11 08:23:25;;;;;;;6.50;2.13;;;13.80;1.00;;;;;;5016936;28;20467;-81
2023/04/11 08:25:52;;;;;;;9.20;2.70;;;14.40;1.00;;;;;;5023554;28;20450;-81
2023/04/11 08:28:20;;;;;;;14.97;3.03;;;14.50;1.00;;;;;;5018480;28;20460;-76
2023/04/11 08:30:47;;;;;;;8.40;2.63;;;14.70;1.00;;;;;;5014621;28;20812;-76
2023/04/11 08:33:14;;;;;;;5.70;2.27;;;14.40;1.00;;;;;;5016347;28;20988;-81
2023/04/11 08:35:41;;;;;;;6.27;2.30;;;14.40;1.00;;;;;;5018537;28;20488;-78
2023/04/11 08:38:08;;;;;;;5.17;1.90;;;15.40;1.00;;;;;;5016368;28;20825;-78
2023/04/11 08:40:35;;;;;;;4.57;2.00;;;15.70;1.00;;;;;;5017515;28;20563;-79
2023/04/11 08:43:02;;;;;;;9.33;2.47;;;17.70;1.00;;;;;;5021219;28;20525;-80
2023/04/11 08:45:30;;;;;;;8.70;2.53;;;18.20;1.00;;;;;;5018162;28;20449;-80
2023/04/11 08:47:57;;;;;;;9.27;2.70;;;18.50;99.90;;;;;;5016018;28;20465;-80
2023/04/11 08:50:25;;;;;;;6.63;1.87;;;18.10;99.90;;;;;;5015902;28;20919;-81
2023/04/11 08:52:55;;;;;;;5.87;2.07;;;18.10;99.90;;;;;;5012913;28;20490;-77
2023/04/11 08:55:22;;;;;;;8.83;2.33;;;18.30;99.90;;;;;;5015077;28;20568;-79
2023/04/11 08:57:49;;;;;;;9.37;2.80;;;17.90;99.90;;;;;;5020097;28;20533;-80
2023/04/11 09:00:17;;;;;;;9.43;2.07;;;17.90;99.90;;;;;;5017829;28;20515;-80
2023/04/11 09:02:59;;;;;;;7.20;2.30;;;16.90;99.90;;;;;;5019476;28;20458;-80
2023/04/11 09:05:28;;;;;;;7.60;2.87;;;16.00;99.90;;;;;;5018292;28;20456;-80
2023/04/11 09:07:56;;;;;;;5.97;2.20;;;16.00;99.90;;;;;;5018254;28;20621;-80
2023/04/11 09:10:24;;;;;;;5.70;1.90;;;16.40;99.90;;;;;;5019418;28;20486;-80
2023/04/11 09:12:51;;;;;;;5.20;1.70;;;16.80;99.90;;;;;;5017470;28;20482;-82
2023/04/11 09:15:19;;;;;;;5.40;1.57;;;17.70;99.90;;;;;;5014204;28;20862;-80
2023/04/11 09:17:46;;;;;;;9.30;1.90;;;18.10;99.90;;;;;;5018602;28;20910;-80
2023/04/11 09:20:18;;;;;;;4.30;1.83;;;17.20;99.90;;;;;;5017262;28;20477;-79
2023/04/11 09:22:48;;;;;;;4.87;1.47;;;18.40;99.90;;;;;;5017214;28;20457;-79
2023/04/11 09:25:15;;;;;;;2.53;1.13;;;20.30;99.90;;;;;;5017999;28;20450;-80
2023/04/11 09:27:42;;;;;;;7.83;1.60;;;20.40;99.90;;;;;;5013284;28;20835;-79
2023/04/11 09:30:21;;;;;;;6.80;2.40;;;19.40;99.90;;;;;;5011759;28;20481;-77
2023/04/11 09:32:49;;;;;;;7.00;2.00;;;20.80;99.90;;;;;;5016630;28;20848;-78
2023/04/11 09:35:19;;;;;;;4.53;1.80;;;21.60;99.90;;;;;;5014820;28;20498;-78
2023/04/11 09:37:50;;;;;;;5.10;2.07;;;21.50;99.90;;;;;;5013680;28;20587;-80
2023/04/11 09:40:18;;;;;;;8.20;1.50;;;23.30;99.90;;;;;;5014582;28;20556;-78
2023/04/11 09:42:46;;;;;;;4.20;1.70;;;23.20;99.90;;;;;;5017855;28;20467;-81
2023/04/11 09:45:18;;;;;;;7.07;1.70;;;22.60;99.90;;;;;;5020988;28;20449;-80
2023/04/11 09:47:45;;;;;;;4.57;1.53;;;22.40;99.90;;;;;;5020574;28;20837;-81
2023/04/11 09:50:12;;;;;;;6.03;1.47;;;22.10;99.90;;;;;;5021807;28;20470;-79
2023/04/11 09:52:42;;;;;;;9.70;2.67;;;20.60;99.90;;;;;;5023082;28;20513;-79
2023/04/11 09:55:11;;;;;;;9.00;1.90;;;21.10;99.90;;;;;;5021180;28;20489;-78
2023/04/11 09:57:44;;;;;;;9.27;2.03;;;21.30;99.90;;;;;;5025526;28;20468;-80
2023/04/11 10:00:15;;;;;;;4.77;1.77;;;19.80;99.90;;;;;;5021113;28;20484;-80
2023/04/11 10:02:43;;;;;;;4.50;1.60;;;18.30;99.90;;;;;;5016615;28;20463;-82
2023/04/11 10:05:12;;;;;;;5.83;1.40;;;18.30;99.90;;;;;;5018314;28;20805;-80
2023/04/11 10:07:47;;;;;;;6.90;1.93;;;18.40;99.90;;;;;;5019997;28;20467;-78
2023/04/11 10:10:19;;;;;;;5.37;2.10;;;19.50;99.90;;;;;;5047689;22;20507;-84
2023/04/11 10:12:47;;;;;;;6.63;1.67;;;18.90;99.90;;;;;;5036028;28;20545;-84
2023/04/11 10:15:14;;;;;;;7.57;1.70;;;18.40;99.90;;;;;;5039936;28;20491;-82
2023/04/11 10:17:41;;;;;;;4.73;1.77;;;18.80;99.90;;;;;;5038629;28;20459;-81
2023/04/11 10:20:43;;;;;;;5.30;1.60;;;19.60;99.90;;;;;;5040326;28;20487;-81
2023/04/11 10:23:12;;;;;;;4.73;1.77;;;18.90;99.90;;;;;;5033483;28;20477;-83
2023/04/11 10:25:50;;;;;;;7.60;2.13;;;18.30;99.90;;;;;;5041664;28;20446;-84
2023/04/11 10:28:31;;;;;;;4.20;1.53;;;17.30;99.90;;;;;;5038086;28;21144;-82
2023/04/11 10:31:03;;;;;;;3.50;1.87;;;16.40;99.90;;;;;;5034512;28;20479;-81
2023/04/11 10:33:30;;;;;;;4.67;1.97;;;15.50;99.90;;;;;;5039286;28;20463;-82
2023/04/11 10:36:00;;;;;;;7.40;1.60;;;16.20;99.90;;;;;;5036066;28;20515;-82
2023/04/11 10:38:50;;;;;;;7.00;2.17;;;16.80;99.90;;;;;;5043533;28;20910;-84
2023/04/11 10:41:30;;;;;;;7.03;1.87;;;16.70;99.90;;;;;;5038634;28;20484;-82
2023/04/11 10:44:19;;;;;;;4.43;1.87;;;19.20;99.90;;;;;;5041164;28;20448;-82
2023/04/11 10:46:48;;;;;;;6.83;2.13;;;18.60;99.90;;;;;;5039243;28;20495;-83
2023/04/11 10:49:37;;;;;;;5.90;2.23;;;17.10;99.90;;;;;;5040140;28;20938;-80
2023/04/11 10:52:18;;;;;;;3.27;1.80;;;15.50;99.90;;;;;;5047820;28;20453;-84
2023/04/11 10:54:46;;;;;;;5.70;2.30;;;15.50;99.90;;;;;;5047660;28;20443;-85
2023/04/11 10:57:13;;;;;;;10.10;1.93;;;15.80;99.90;;;;;;5040814;28;20551;-83
2023/04/11 11:00:10;;;;;;;4.63;1.80;;;16.30;99.90;;;;;;5060637;28;20479;-83
2023/04/11 11:02:38;;;;;;;7.00;1.63;;;16.90;99.90;;;;;;5034676;28;20460;-83
2023/04/11 11:05:24;;;;;;;3.27;1.50;;;16.60;99.90;;;;;;5037657;28;20460;-82
2023/04/11 11:07:53;;;;;;;6.30;2.37;;;16.50;99.90;;;;;;5044964;28;20459;-83
2023/04/11 11:10:37;;;;;;;4.70;1.80;;;16.60;99.90;;;;;;5041825;28;21005;-82
2023/04/11 11:13:04;;;;;;;4.20;3.10;;;17.10;99.90;;;;;;5045636;28;20527;-84
2023/04/11 11:15:35;;;;;;;4.30;1.67;;;18.80;99.90;;;;;;5038309;28;20481;-82
2023/04/11 11:18:02;;;;;;;4.83;1.83;;;18.90;99.90;;;;;;5040851;28;20474;-83
2023/04/11 11:20:29;;;;;;;3.97;1.60;;;21.50;99.90;;;;;;5041740;28;20456;-81
2023/04/11 11:23:01;;;;;;;5.10;1.97;;;23.60;99.90;;;;;;5042074;28;20456;-86
2023/04/11 11:25:28;;;;;;;4.40;2.00;;;23.70;99.90;;;;;;5041333;28;20532;-84
2023/04/11 11:28:00;;;;;;;7.10;2.10;;;24.40;99.90;;;;;;5041670;28;20548;-84
2023/04/11 11:30:28;;;;;;;6.90;1.70;;;25.50;99.90;;;;;;5042749;28;20483;-83
2023/04/11 11:32:55;;;;;;;6.33;2.17;;;26.00;99.90;;;;;;5054043;28;20460;-82
2023/04/11 11:35:22;;;;;;;6.50;2.07;;;24.60;99.90;;;;;;5044070;28;20538;-82
2023/04/11 11:37:51;;;;;;;4.60;1.40;;;23.50;99.90;;;;;;5037990;28;20458;-83
2023/04/11 11:40:20;;;;;;;4.00;1.50;;;23.70;99.90;;;;;;5042991;28;20477;-84
2023/04/11 11:42:48;;;;;;;3.87;1.20;;;23.70;99.90;;;;;;5047616;28;20491;-85
2023/04/11 11:45:17;;;;;;;11.10;1.90;;;23.20;99.90;;;;;;5053757;28;20470;-81
2023/04/11 11:47:45;;;;;;;3.73;1.73;;;23.70;99.90;;;;;;5053900;28;20516;-84
2023/04/11 11:50:23;;;;;;;4.73;1.53;;;22.70;99.90;;;;;;5043075;28;20491;-84
2023/04/11 11:52:50;;;;;;;5.40;1.70;;;20.70;99.90;;;;;;5049823;28;20491;-83
2023/04/11 11:55:31;;;;;;;6.60;2.10;;;19.90;99.90;;;;;;5048894;28;20882;-82
2023/04/11 11:58:01;;;;;;;6.53;2.00;;;19.00;99.90;;;;;;5040162;28;20454;-84
2023/04/11 12:00:31;;;;;;;4.90;1.83;;;18.30;99.90;;;;;;5041008;28;20478;-82
2023/04/11 12:02:59;;;;;;;5.20;2.00;;;18.20;99.90;;;;;;5059686;28;20541;-82
2023/04/11 12:05:28;;;;;;;7.47;2.40;;;17.50;99.90;;;;;;5046262;28;20521;-86
2023/04/11 12:07:58;;;;;;;3.07;1.53;;;17.70;99.90;;;;;;5052743;28;20471;-82
2023/04/11 12:10:27;;;;;;;4.00;1.87;;;19.00;99.90;;;;;;5040707;28;20552;-84
2023/04/11 12:12:53;;;;;;;5.53;1.70;;;21.70;99.90;;;;;;5042471;28;20456;-83
2023/04/11 12:15:22;;;;;;;3.87;1.50;;;24.00;99.90;;;;;;5051365;28;20492;-82
2023/04/11 12:17:52;;;;;;;5.60;1.90;;;24.80;99.90;;;;;;5036730;28;20480;-84
2023/04/11 12:20:22;;;;;;;6.30;1.73;;;23.10;99.90;;;;;;5038259;28;20531;-83
2023/04/11 12:22:49;;;;;;;5.63;1.60;;;21.60;99.90;;;;;;5035207;28;20453;-83
2023/04/11 12:25:16;;;;;;;6.07;2.10;;;21.50;99.90;;;;;;5041320;28;20482;-85
2023/04/11 12:27:44;;;;;;;4.40;1.40;;;21.90;99.90;;;;;;5037584;28;20487;-83
2023/04/11 12:30:14;;;;;;;4.63;1.73;;;20.60;99.90;;;;;;5044746;28;20501;-85
2023/04/11 12:32:41;;;;;;;3.37;1.57;;;20.20;99.90;;;;;;5033303;28;20940;-81
2023/04/11 12:35:10;;;;;;;6.47;1.77;;;20.00;99.90;;;;;;5036480;28;20466;-83
2023/04/11 12:37:38;;;;;;;4.07;1.40;;;19.50;99.90;;;;;;5034600;28;20506;-85
2023/04/11 12:40:09;;;;;;;3.37;1.30;;;19.50;99.90;;;;;;5042938;28;20481;-81
2023/04/11 12:42:37;;;;;;;4.60;1.37;;;18.80;99.90;;;;;;5035471;28;20466;-82
2023/04/11 12:45:05;;;;;;;2.77;1.20;;;18.30;99.90;;;;;;5037114;28;20463;-82
2023/04/11 12:47:32;;;;;;;6.07;1.60;;;18.90;99.90;;;;;;5037473;28;20444;-82
2023/04/11 12:49:59;;;;;;;5.90;1.30;;;18.70;99.90;;;;;;5035409;28;20478;-80
2023/04/11 12:52:28;;;;;;;4.70;1.73;;;18.70;99.90;;;;;;5037852;28;20527;-81
2023/04/11 12:54:55;;;;;;;3.27;1.27;;;19.20;99.90;;;;;;5041777;28;20462;-81
2023/04/11 12:57:22;;;;;;;4.13;1.50;;;20.40;99.90;;;;;;5035232;28;20574;-82
2023/04/11 12:59:49;;;;;;;5.30;1.33;;;19.10;99.90;;;;;;5038042;28;20482;-81
2023/04/11 13:02:16;;;;;;;2.73;1.00;;;18.70;99.90;;;;;;5034672;28;20896;-82